createdAt,value
2023-04-30T00:00:52.559Z,495.00
2023-04-30T00:01:52.719Z,495.00
2023-04-30T00:02:52.742Z,495.00
2023-04-30T00:03:52.733Z,492.00
2023-04-30T00:04:52.701Z,489.00
2023-04-30T00:05:52.789Z,488.00
2023-04-30T00:06:52.801Z,491.00
2023-04-30T00:07:52.875Z,491.00
2023-04-30T00:08:52.892Z,492.00
2023-04-30T00:09:53.279Z,491.00
2023-04-30T00:10:53.004Z,491.00
2023-04-30T00:11:53.045Z,488.00
2023-04-30T00:12:53.066Z,489.00
2023-04-30T00:13:53.177Z,489.00
2023-04-30T00:14:53.154Z,490.00
2023-04-30T00:15:53.265Z,490.00
2023-04-30T00:16:53.300Z,492.00
2023-04-30T00:17:53.421Z,491.00
2023-04-30T00:18:53.363Z,494.00
2023-04-30T00:19:53.521Z,495.00
2023-04-30T00:20:53.456Z,498.00
2023-04-30T00:21:53.512Z,502.00
2023-04-30T00:22:53.563Z,499.00
2023-04-30T00:23:53.588Z,498.00
2023-04-30T00:24:53.657Z,493.00
2023-04-30T00:25:53.730Z,491.00
2023-04-30T00:26:53.755Z,492.00
2023-04-30T00:27:53.857Z,489.00
2023-04-30T00:28:53.838Z,490.00
2023-04-30T00:29:54.125Z,491.00
2023-04-30T00:30:53.940Z,491.00
2023-04-30T00:31:53.978Z,489.00
2023-04-30T00:32:53.985Z,490.00
2023-04-30T00:33:53.935Z,491.00
2023-04-30T00:34:53.938Z,490.00
2023-04-30T00:35:53.908Z,489.00
2023-04-30T00:36:53.880Z,492.00
2023-04-30T00:37:53.905Z,493.00
2023-04-30T00:38:53.884Z,495.00
2023-04-30T00:39:54.063Z,491.00
2023-04-30T00:40:53.906Z,491.00
2023-04-30T00:41:53.913Z,492.00
2023-04-30T00:42:53.986Z,492.00
2023-04-30T00:43:54.021Z,491.00
2023-04-30T00:44:54.057Z,490.00
2023-04-30T00:45:54.145Z,490.00
2023-04-30T00:46:54.164Z,490.00
2023-04-30T00:47:54.282Z,489.00
2023-04-30T00:48:54.300Z,488.00
2023-04-30T00:49:54.506Z,486.00
2023-04-30T00:50:54.378Z,483.00
2023-04-30T00:51:54.409Z,482.00
2023-04-30T00:52:54.478Z,484.00
2023-04-30T00:53:54.520Z,480.00
2023-04-30T00:54:54.585Z,481.00
2023-04-30T00:55:54.627Z,486.00
2023-04-30T00:56:54.720Z,487.00
2023-04-30T00:57:54.727Z,487.00
2023-04-30T00:58:54.794Z,486.00
2023-04-30T00:59:55.105Z,490.00
2023-04-30T01:00:54.933Z,493.00
2023-04-30T01:01:54.975Z,493.00
2023-04-30T01:02:55.113Z,494.00
2023-04-30T01:03:55.045Z,494.00
2023-04-30T01:04:55.107Z,494.00
2023-04-30T01:05:55.185Z,493.00
2023-04-30T01:06:55.211Z,492.00
2023-04-30T01:07:55.255Z,493.00
2023-04-30T01:08:55.286Z,489.00
2023-04-30T01:09:55.585Z,488.00
2023-04-30T01:10:55.402Z,486.00
2023-04-30T01:11:55.433Z,485.00
2023-04-30T01:12:55.507Z,485.00
2023-04-30T01:13:55.537Z,485.00
2023-04-30T01:14:55.600Z,487.00
2023-04-30T01:15:55.676Z,487.00
2023-04-30T01:16:55.685Z,491.00
2023-04-30T01:17:55.847Z,490.00
2023-04-30T01:18:56.025Z,492.00
2023-04-30T01:19:56.009Z,494.00
2023-04-30T01:20:55.890Z,495.00
2023-04-30T01:21:55.926Z,495.00
2023-04-30T01:22:55.996Z,496.00
2023-04-30T01:23:56.033Z,497.00
2023-04-30T01:24:56.072Z,496.00
2023-04-30T01:25:56.120Z,496.00
2023-04-30T01:26:56.150Z,495.00
2023-04-30T01:27:56.207Z,495.00
2023-04-30T01:28:56.273Z,493.00
2023-04-30T01:29:56.552Z,493.00
2023-04-30T01:30:56.352Z,496.00
2023-04-30T01:31:56.269Z,496.00
2023-04-30T01:32:56.262Z,496.00
2023-04-30T01:33:56.252Z,498.00
2023-04-30T01:34:56.268Z,495.00
2023-04-30T01:35:56.196Z,496.00
2023-04-30T01:36:56.190Z,496.00
2023-04-30T01:37:56.156Z,496.00
2023-04-30T01:38:56.162Z,497.00
2023-04-30T01:39:56.579Z,497.00
2023-04-30T01:40:56.134Z,495.00
2023-04-30T01:41:56.109Z,496.00
2023-04-30T01:42:56.101Z,493.00
2023-04-30T01:43:56.105Z,492.00
2023-04-30T01:44:56.150Z,494.00
2023-04-30T01:45:56.259Z,494.00
2023-04-30T01:46:56.274Z,493.00
2023-04-30T01:47:56.343Z,493.00
2023-04-30T01:48:56.351Z,493.00
2023-04-30T01:49:56.740Z,494.00
2023-04-30T01:50:56.450Z,491.00
2023-04-30T01:51:56.511Z,492.00
2023-04-30T01:52:56.559Z,492.00
2023-04-30T01:53:56.593Z,492.00
2023-04-30T01:54:56.678Z,490.00
2023-04-30T01:55:56.705Z,489.00
2023-04-30T01:56:56.809Z,491.00
2023-04-30T01:57:56.820Z,492.00
2023-04-30T01:58:56.877Z,491.00
2023-04-30T01:59:56.980Z,492.00
2023-04-30T02:00:57.005Z,491.00
2023-04-30T02:01:57.148Z,490.00
2023-04-30T02:02:57.185Z,492.00
2023-04-30T02:03:57.260Z,493.00
2023-04-30T02:04:57.198Z,490.00
2023-04-30T02:05:57.259Z,490.00
2023-04-30T02:06:57.344Z,491.00
2023-04-30T02:07:57.351Z,491.00
2023-04-30T02:08:57.432Z,492.00
2023-04-30T02:09:57.542Z,494.00
2023-04-30T02:10:57.586Z,499.00
2023-04-30T02:11:57.605Z,501.00
2023-04-30T02:12:57.668Z,500.00
2023-04-30T02:13:57.703Z,499.00
2023-04-30T02:14:57.790Z,504.00
2023-04-30T02:15:57.856Z,506.00
2023-04-30T02:16:57.888Z,507.00
2023-04-30T02:17:57.935Z,503.00
2023-04-30T02:18:57.985Z,505.00
2023-04-30T02:19:58.036Z,506.00
2023-04-30T02:20:58.073Z,508.00
2023-04-30T02:21:58.197Z,506.00
2023-04-30T02:22:58.195Z,505.00
2023-04-30T02:23:58.278Z,506.00
2023-04-30T02:24:58.330Z,506.00
2023-04-30T02:25:58.374Z,505.00
2023-04-30T02:26:58.458Z,507.00
2023-04-30T02:27:58.471Z,508.00
2023-04-30T02:28:58.557Z,507.00
2023-04-30T02:29:58.589Z,506.00
2023-04-30T02:30:58.659Z,502.00
2023-04-30T02:31:58.783Z,499.00
2023-04-30T02:32:58.777Z,498.00
2023-04-30T02:33:58.843Z,496.00
2023-04-30T02:34:58.894Z,492.00
2023-04-30T02:35:59.186Z,493.00
2023-04-30T02:36:59.001Z,495.00
2023-04-30T02:37:59.124Z,494.00
2023-04-30T02:38:59.106Z,493.00
2023-04-30T02:39:59.180Z,493.00
2023-04-30T02:40:59.229Z,495.00
2023-04-30T02:41:59.324Z,498.00
2023-04-30T02:42:59.350Z,499.00
2023-04-30T02:43:59.383Z,499.00
2023-04-30T02:44:59.473Z,500.00
2023-04-30T02:45:59.569Z,500.00
2023-04-30T02:46:59.595Z,501.00
2023-04-30T02:47:59.660Z,501.00
2023-04-30T02:48:59.704Z,500.00
2023-04-30T02:49:59.732Z,499.00
2023-04-30T02:50:59.780Z,497.00
2023-04-30T02:51:59.870Z,495.00
2023-04-30T02:52:59.899Z,495.00
2023-04-30T02:53:59.983Z,494.00
2023-04-30T02:55:00.032Z,494.00
2023-04-30T02:56:00.146Z,495.00
2023-04-30T02:57:00.169Z,493.00
2023-04-30T02:58:00.227Z,494.00
2023-04-30T02:59:00.278Z,493.00
2023-04-30T03:00:00.338Z,494.00
2023-04-30T03:01:00.408Z,494.00
2023-04-30T03:02:00.466Z,494.00
2023-04-30T03:03:00.622Z,498.00
2023-04-30T03:04:00.487Z,497.00
2023-04-30T03:05:00.525Z,497.00
2023-04-30T03:06:00.506Z,499.00
2023-04-30T03:07:00.523Z,500.00
2023-04-30T03:08:00.467Z,497.00
2023-04-30T03:09:00.485Z,493.00
2023-04-30T03:10:00.474Z,492.00
2023-04-30T03:11:00.447Z,491.00
2023-04-30T03:12:00.460Z,490.00
2023-04-30T03:13:00.437Z,489.00
2023-04-30T03:14:00.470Z,489.00
2023-04-30T03:15:00.538Z,489.00
2023-04-30T03:16:00.645Z,490.00
2023-04-30T03:17:00.685Z,491.00
2023-04-30T03:18:00.751Z,491.00
2023-04-30T03:19:00.806Z,490.00
2023-04-30T03:20:00.860Z,490.00
2023-04-30T03:21:00.984Z,491.00
2023-04-30T03:22:00.997Z,490.00
2023-04-30T03:23:01.049Z,490.00
2023-04-30T03:24:01.133Z,490.00
2023-04-30T03:25:01.185Z,491.00
2023-04-30T03:26:01.226Z,490.00
2023-04-30T03:27:01.295Z,492.00
2023-04-30T03:28:01.360Z,493.00
2023-04-30T03:29:01.397Z,492.00
2023-04-30T03:30:01.460Z,490.00
2023-04-30T03:31:01.552Z,490.00
2023-04-30T03:32:01.789Z,489.00
2023-04-30T03:33:01.723Z,487.00
2023-04-30T03:34:01.743Z,486.00
2023-04-30T03:35:01.813Z,486.00
2023-04-30T03:36:01.864Z,488.00
2023-04-30T03:37:01.922Z,489.00
2023-04-30T03:38:01.989Z,490.00
2023-04-30T03:39:02.044Z,490.00
2023-04-30T03:40:02.025Z,493.00
2023-04-30T03:41:02.028Z,492.00
2023-04-30T03:42:02.037Z,492.00
2023-04-30T03:43:02.010Z,491.00
2023-04-30T03:44:02.024Z,492.00
2023-04-30T03:45:02.012Z,492.00
2023-04-30T03:46:02.053Z,492.00
2023-04-30T03:47:01.985Z,497.00
2023-04-30T03:48:02.077Z,495.00
2023-04-30T03:49:02.024Z,494.00
2023-04-30T03:50:02.152Z,493.00
2023-04-30T03:51:02.194Z,491.00
2023-04-30T03:52:02.328Z,488.00
2023-04-30T03:53:02.373Z,487.00
2023-04-30T03:54:02.554Z,486.00
2023-04-30T03:55:02.491Z,488.00
2023-04-30T03:56:02.555Z,491.00
2023-04-30T03:57:02.621Z,491.00
2023-04-30T03:58:02.732Z,492.00
2023-04-30T03:59:02.722Z,491.00
2023-04-30T04:00:02.778Z,495.00
2023-04-30T04:01:02.829Z,494.00
2023-04-30T04:02:02.992Z,494.00
2023-04-30T04:03:02.990Z,494.00
2023-04-30T04:04:02.983Z,494.00
2023-04-30T04:05:03.037Z,491.00
2023-04-30T04:06:03.000Z,490.00
2023-04-30T04:07:02.960Z,490.00
2023-04-30T04:08:02.968Z,491.00
2023-04-30T04:09:02.962Z,487.00
2023-04-30T04:10:02.973Z,488.00
2023-04-30T04:11:02.966Z,487.00
2023-04-30T04:12:02.980Z,485.00
2023-04-30T04:13:03.060Z,486.00
2023-04-30T04:14:03.119Z,485.00
2023-04-30T04:15:03.201Z,485.00
2023-04-30T04:16:03.263Z,486.00
2023-04-30T04:17:03.289Z,484.00
2023-04-30T04:18:03.525Z,483.00
2023-04-30T04:19:03.435Z,482.00
2023-04-30T04:20:03.521Z,482.00
2023-04-30T04:21:03.506Z,481.00
2023-04-30T04:22:03.511Z,484.00
2023-04-30T04:23:03.521Z,484.00
2023-04-30T04:24:03.511Z,483.00
2023-04-30T04:25:03.550Z,485.00
2023-04-30T04:26:03.514Z,486.00
2023-04-30T04:27:03.532Z,487.00
2023-04-30T04:28:03.517Z,487.00
2023-04-30T04:29:03.518Z,488.00
2023-04-30T04:30:03.577Z,487.00
2023-04-30T04:31:03.627Z,487.00
2023-04-30T04:32:03.752Z,487.00
2023-04-30T04:33:03.793Z,483.00
2023-04-30T04:34:03.818Z,486.00
2023-04-30T04:35:03.916Z,483.00
2023-04-30T04:36:03.972Z,483.00
2023-04-30T04:37:04.040Z,483.00
2023-04-30T04:38:04.071Z,484.00
2023-04-30T04:39:04.153Z,481.00
2023-04-30T04:40:04.170Z,483.00
2023-04-30T04:41:04.214Z,484.00
2023-04-30T04:42:04.259Z,487.00
2023-04-30T04:43:04.279Z,491.00
2023-04-30T04:44:04.330Z,490.00
2023-04-30T04:45:04.369Z,490.00
2023-04-30T04:46:04.453Z,491.00
2023-04-30T04:47:04.392Z,492.00
2023-04-30T04:48:04.430Z,492.00
2023-04-30T04:49:04.428Z,493.00
2023-04-30T04:50:04.459Z,492.00
2023-04-30T04:51:04.486Z,490.00
2023-04-30T04:52:04.474Z,489.00
2023-04-30T04:53:04.492Z,487.00
2023-04-30T04:54:04.471Z,486.00
2023-04-30T04:55:04.561Z,485.00
2023-04-30T04:56:04.497Z,486.00
2023-04-30T04:57:04.542Z,486.00
2023-04-30T04:58:04.551Z,488.00
2023-04-30T04:59:04.630Z,488.00
2023-04-30T05:00:04.656Z,486.00
2023-04-30T05:01:04.692Z,487.00
2023-04-30T05:02:04.857Z,487.00
2023-04-30T05:03:04.822Z,485.00
2023-04-30T05:04:04.910Z,485.00
2023-04-30T05:05:04.765Z,483.00
2023-04-30T05:06:04.787Z,480.00
2023-04-30T05:07:04.782Z,479.00
2023-04-30T05:08:04.739Z,478.00
2023-04-30T05:09:04.735Z,479.00
2023-04-30T05:10:04.729Z,480.00
2023-04-30T05:11:04.711Z,482.00
2023-04-30T05:12:04.724Z,482.00
2023-04-30T05:13:04.712Z,481.00
2023-04-30T05:14:04.684Z,482.00
2023-04-30T05:15:04.692Z,483.00
2023-04-30T05:16:04.696Z,481.00
2023-04-30T05:17:04.687Z,479.00
2023-04-30T05:18:04.659Z,477.00
2023-04-30T05:19:04.660Z,473.00
2023-04-30T05:20:04.663Z,476.00
2023-04-30T05:21:04.654Z,475.00
2023-04-30T05:22:04.658Z,474.00
2023-04-30T05:23:04.649Z,470.00
2023-04-30T05:24:04.650Z,470.00
2023-04-30T05:25:04.661Z,468.00
2023-04-30T05:26:04.665Z,469.00
2023-04-30T05:27:04.636Z,468.00
2023-04-30T05:28:04.672Z,469.00
2023-04-30T05:29:04.648Z,468.00
2023-04-30T05:30:04.637Z,469.00
2023-04-30T05:31:04.635Z,472.00
2023-04-30T05:32:04.717Z,470.00
2023-04-30T05:33:04.759Z,471.00
2023-04-30T05:34:04.628Z,474.00
2023-04-30T05:35:04.634Z,475.00
2023-04-30T05:36:04.616Z,476.00
2023-04-30T05:37:04.632Z,475.00
2023-04-30T05:38:04.723Z,478.00
2023-04-30T05:39:04.643Z,477.00
2023-04-30T05:40:04.607Z,478.00
2023-04-30T05:41:04.613Z,474.00
2023-04-30T05:42:04.589Z,473.00
2023-04-30T05:43:04.593Z,471.00
2023-04-30T05:44:04.580Z,469.00
2023-04-30T05:45:04.587Z,467.00
2023-04-30T05:46:04.654Z,467.00
2023-04-30T05:47:04.654Z,468.00
2023-04-30T05:48:04.697Z,469.00
2023-04-30T05:49:04.704Z,468.00
2023-04-30T05:50:04.758Z,468.00
2023-04-30T05:51:04.797Z,470.00
2023-04-30T05:52:05.120Z,468.00
2023-04-30T05:53:04.887Z,470.00
2023-04-30T05:54:04.951Z,469.00
2023-04-30T05:55:04.971Z,467.00
2023-04-30T05:56:05.023Z,468.00
2023-04-30T05:57:05.064Z,465.00
2023-04-30T05:58:05.024Z,465.00
2023-04-30T05:59:05.030Z,466.00
2023-04-30T06:00:05.028Z,467.00
2023-04-30T06:01:05.026Z,466.00
2023-04-30T06:02:05.063Z,465.00
2023-04-30T06:03:05.051Z,464.00
2023-04-30T06:04:05.040Z,463.00
2023-04-30T06:05:05.038Z,462.00
2023-04-30T06:06:05.083Z,460.00
2023-04-30T06:07:05.017Z,461.00
2023-04-30T06:08:05.006Z,461.00
2023-04-30T06:09:05.096Z,460.00
2023-04-30T06:10:05.096Z,458.00
2023-04-30T06:11:05.029Z,460.00
2023-04-30T06:12:05.039Z,459.00
2023-04-30T06:13:05.062Z,459.00
2023-04-30T06:14:05.029Z,459.00
2023-04-30T06:15:05.056Z,460.00
2023-04-30T06:16:05.074Z,458.00
2023-04-30T06:17:05.053Z,457.00
2023-04-30T06:18:05.094Z,457.00
2023-04-30T06:19:05.117Z,454.00
2023-04-30T06:20:05.058Z,454.00
2023-04-30T06:21:05.054Z,453.00
2023-04-30T06:22:05.071Z,450.00
2023-04-30T06:23:05.062Z,448.00
2023-04-30T06:24:05.055Z,447.00
2023-04-30T06:25:05.063Z,448.00
2023-04-30T06:26:05.054Z,450.00
2023-04-30T06:27:05.054Z,449.00
2023-04-30T06:28:05.069Z,449.00
2023-04-30T06:29:05.051Z,447.00
2023-04-30T06:30:05.039Z,450.00
2023-04-30T06:31:05.096Z,445.00
2023-04-30T06:32:07.724Z,443.00
2023-04-30T06:33:05.074Z,444.00
2023-04-30T06:34:05.051Z,445.00
2023-04-30T06:35:05.078Z,446.00
2023-04-30T06:36:05.050Z,446.00
2023-04-30T06:37:05.084Z,446.00
2023-04-30T06:38:05.050Z,446.00
2023-04-30T06:39:05.078Z,447.00
2023-04-30T06:40:05.119Z,448.00
2023-04-30T06:41:05.067Z,448.00
2023-04-30T06:42:05.080Z,449.00
2023-04-30T06:43:05.070Z,448.00
2023-04-30T06:44:05.083Z,448.00
2023-04-30T06:45:05.087Z,447.00
2023-04-30T06:46:05.172Z,445.00
2023-04-30T06:47:05.115Z,443.00
2023-04-30T06:48:05.147Z,444.00
2023-04-30T06:49:05.106Z,442.00
2023-04-30T06:50:05.099Z,442.00
2023-04-30T06:51:05.116Z,441.00
2023-04-30T06:52:05.121Z,441.00
2023-04-30T06:53:05.145Z,441.00
2023-04-30T06:54:05.111Z,442.00
2023-04-30T06:55:05.203Z,442.00
2023-04-30T06:56:05.125Z,441.00
2023-04-30T06:57:05.154Z,436.00
2023-04-30T06:58:05.161Z,438.00
2023-04-30T06:59:05.144Z,440.00
2023-04-30T07:00:05.165Z,440.00
2023-04-30T07:01:05.181Z,441.00
2023-04-30T07:02:05.150Z,440.00
2023-04-30T07:03:05.247Z,442.00
2023-04-30T07:04:05.186Z,442.00
2023-04-30T07:05:05.224Z,441.00
2023-04-30T07:06:05.218Z,441.00
2023-04-30T07:07:05.201Z,441.00
2023-04-30T07:08:05.207Z,443.00
2023-04-30T07:09:05.211Z,444.00
2023-04-30T07:10:05.200Z,444.00
2023-04-30T07:11:05.228Z,441.00
2023-04-30T07:12:05.247Z,444.00
2023-04-30T07:13:05.253Z,447.00
2023-04-30T07:14:05.353Z,447.00
2023-04-30T07:15:05.240Z,447.00
2023-04-30T07:16:05.314Z,447.00
2023-04-30T07:17:05.278Z,450.00
2023-04-30T07:18:05.330Z,449.00
2023-04-30T07:19:05.257Z,449.00
2023-04-30T07:20:05.263Z,448.00
2023-04-30T07:21:05.308Z,446.00
2023-04-30T07:22:05.629Z,446.00
2023-04-30T07:23:05.262Z,444.00
2023-04-30T07:24:05.299Z,442.00
2023-04-30T07:25:05.285Z,442.00
2023-04-30T07:26:05.291Z,440.00
2023-04-30T07:27:05.314Z,442.00
2023-04-30T07:28:05.330Z,440.00
2023-04-30T07:29:05.274Z,441.00
2023-04-30T07:30:05.280Z,442.00
2023-04-30T07:31:05.356Z,444.00
2023-04-30T07:32:05.298Z,445.00
2023-04-30T07:33:05.365Z,446.00
2023-04-30T07:34:05.341Z,446.00
2023-04-30T07:35:05.384Z,444.00
2023-04-30T07:36:05.351Z,445.00
2023-04-30T07:37:05.354Z,446.00
2023-04-30T07:38:05.351Z,446.00
2023-04-30T07:39:05.385Z,445.00
2023-04-30T07:40:05.390Z,444.00
2023-04-30T07:41:05.398Z,444.00
2023-04-30T07:42:05.428Z,446.00
2023-04-30T07:43:05.405Z,446.00
2023-04-30T07:44:05.469Z,445.00
2023-04-30T07:45:05.435Z,446.00
2023-04-30T07:46:05.451Z,446.00
2023-04-30T07:47:05.478Z,445.00
2023-04-30T07:48:05.500Z,444.00
2023-04-30T07:49:05.462Z,443.00
2023-04-30T07:50:05.490Z,441.00
2023-04-30T07:51:05.479Z,440.00
2023-04-30T07:52:05.486Z,438.00
2023-04-30T07:53:05.543Z,437.00
2023-04-30T07:54:05.511Z,436.00
2023-04-30T07:55:05.520Z,435.00
2023-04-30T07:56:05.517Z,436.00
2023-04-30T07:57:05.525Z,437.00
2023-04-30T07:58:05.566Z,440.00
2023-04-30T07:59:05.528Z,441.00
2023-04-30T08:00:05.553Z,439.00
2023-04-30T08:01:05.564Z,439.00
2023-04-30T08:02:05.612Z,439.00
2023-04-30T08:03:05.634Z,440.00
2023-04-30T08:04:05.721Z,437.00
2023-04-30T08:05:05.605Z,437.00
2023-04-30T08:06:05.620Z,437.00
2023-04-30T08:07:05.597Z,436.00
2023-04-30T08:08:05.608Z,441.00
2023-04-30T08:09:05.608Z,445.00
2023-04-30T08:10:05.657Z,441.00
2023-04-30T08:11:05.617Z,441.00
2023-04-30T08:12:05.630Z,441.00
2023-04-30T08:13:05.654Z,440.00
2023-04-30T08:14:05.635Z,439.00
2023-04-30T08:15:05.668Z,440.00
2023-04-30T08:16:05.668Z,441.00
2023-04-30T08:17:05.725Z,440.00
2023-04-30T08:18:05.823Z,439.00
2023-04-30T08:19:05.666Z,440.00
2023-04-30T08:20:05.662Z,441.00
2023-04-30T08:21:05.667Z,444.00
2023-04-30T08:22:05.675Z,444.00
2023-04-30T08:23:05.713Z,447.00
2023-04-30T08:24:05.777Z,448.00
2023-04-30T08:25:05.754Z,448.00
2023-04-30T08:26:05.740Z,449.00
2023-04-30T08:27:05.744Z,450.00
2023-04-30T08:28:05.747Z,446.00
2023-04-30T08:29:05.779Z,445.00
2023-04-30T08:30:05.816Z,444.00
2023-04-30T08:31:05.852Z,443.00
2023-04-30T08:32:06.034Z,441.00
2023-04-30T08:33:06.003Z,442.00
2023-04-30T08:34:06.060Z,440.00
2023-04-30T08:35:06.122Z,438.00
2023-04-30T08:36:06.088Z,438.00
2023-04-30T08:37:06.175Z,441.00
2023-04-30T08:38:06.212Z,442.00
2023-04-30T08:39:06.245Z,439.00
2023-04-30T08:40:06.315Z,440.00
2023-04-30T08:41:06.372Z,438.00
2023-04-30T08:42:06.415Z,439.00
2023-04-30T08:43:06.487Z,443.00
2023-04-30T08:44:08.421Z,444.00
2023-04-30T08:45:06.590Z,445.00
2023-04-30T08:46:06.673Z,446.00
2023-04-30T08:47:06.726Z,446.00
2023-04-30T08:48:06.799Z,446.00
2023-04-30T08:49:06.864Z,445.00
2023-04-30T08:50:06.866Z,445.00
2023-04-30T08:51:06.907Z,444.00
2023-04-30T08:52:06.950Z,445.00
2023-04-30T08:53:07.011Z,448.00
2023-04-30T08:54:07.063Z,448.00
2023-04-30T08:55:07.117Z,447.00
2023-04-30T08:56:07.148Z,447.00
2023-04-30T08:57:07.223Z,447.00
2023-04-30T08:58:07.683Z,449.00
2023-04-30T08:59:07.293Z,446.00
2023-04-30T09:00:07.364Z,445.00
2023-04-30T09:01:07.410Z,445.00
2023-04-30T09:02:07.537Z,448.00
2023-04-30T09:03:07.544Z,447.00
2023-04-30T09:04:07.652Z,445.00
2023-04-30T09:05:07.541Z,445.00
2023-04-30T09:06:07.620Z,445.00
2023-04-30T09:07:09.617Z,447.00
2023-04-30T09:08:07.681Z,447.00
2023-04-30T09:09:07.686Z,445.00
2023-04-30T09:10:07.718Z,446.00
2023-04-30T09:11:07.758Z,447.00
2023-04-30T09:12:07.772Z,449.00
2023-04-30T09:13:07.805Z,450.00
2023-04-30T09:14:07.840Z,447.00
2023-04-30T09:15:07.864Z,447.00
2023-04-30T09:16:07.950Z,448.00
2023-04-30T09:17:07.938Z,450.00
2023-04-30T09:18:08.066Z,449.00
2023-04-30T09:19:07.987Z,447.00
2023-04-30T09:20:08.009Z,448.00
2023-04-30T09:21:08.035Z,448.00
2023-04-30T09:22:07.993Z,448.00
2023-04-30T09:23:07.982Z,452.00
2023-04-30T09:24:07.990Z,451.00
2023-04-30T09:25:07.931Z,450.00
2023-04-30T09:26:07.894Z,448.00
2023-04-30T09:27:07.923Z,444.00
2023-04-30T09:28:07.886Z,444.00
2023-04-30T09:29:08.229Z,445.00
2023-04-30T09:30:07.833Z,444.00
2023-04-30T09:31:07.854Z,443.00
2023-04-30T09:32:07.818Z,444.00
2023-04-30T09:33:10.745Z,446.00
2023-04-30T09:34:07.812Z,448.00
2023-04-30T09:35:07.759Z,446.00
2023-04-30T09:36:07.732Z,445.00
2023-04-30T09:37:07.735Z,445.00
2023-04-30T09:38:07.725Z,446.00
2023-04-30T09:39:10.345Z,450.00
2023-04-30T09:40:07.736Z,449.00
2023-04-30T09:41:07.670Z,449.00
2023-04-30T09:42:07.651Z,449.00
2023-04-30T09:43:07.648Z,451.00
2023-04-30T09:44:07.618Z,450.00
2023-04-30T09:45:07.683Z,452.00
2023-04-30T09:46:07.591Z,454.00
2023-04-30T09:47:07.707Z,455.00
2023-04-30T09:48:16.544Z,456.00
2023-04-30T09:49:08.602Z,454.00
2023-04-30T09:50:07.636Z,453.00
2023-04-30T09:51:07.512Z,455.00
2023-04-30T09:52:07.519Z,455.00
2023-04-30T09:53:07.518Z,454.00
2023-04-30T09:54:07.486Z,454.00
2023-04-30T09:55:07.491Z,455.00
2023-04-30T09:56:07.456Z,456.00
2023-04-30T09:57:07.457Z,456.00
2023-04-30T09:58:07.480Z,456.00
2023-04-30T09:59:07.430Z,454.00
2023-04-30T10:00:07.426Z,451.00
2023-04-30T10:01:07.468Z,452.00
2023-04-30T10:02:07.398Z,452.00
2023-04-30T10:03:07.428Z,452.00
2023-04-30T10:04:07.381Z,450.00
2023-04-30T10:05:07.363Z,451.00
2023-04-30T10:06:07.454Z,452.00
2023-04-30T10:07:07.351Z,454.00
2023-04-30T10:08:07.304Z,452.00
2023-04-30T10:09:07.284Z,451.00
2023-04-30T10:10:07.272Z,452.00
2023-04-30T10:11:07.256Z,452.00
2023-04-30T10:12:07.211Z,455.00
2023-04-30T10:13:07.748Z,457.00
2023-04-30T10:14:07.179Z,454.00
2023-04-30T10:15:07.183Z,454.00
2023-04-30T10:16:07.197Z,453.00
2023-04-30T10:17:07.149Z,452.00
2023-04-30T10:18:07.239Z,452.00
2023-04-30T10:19:07.115Z,451.00
2023-04-30T10:20:07.085Z,450.00
2023-04-30T10:21:07.089Z,450.00
2023-04-30T10:22:07.052Z,450.00
2023-04-30T10:23:07.039Z,451.00
2023-04-30T10:24:06.988Z,453.00
2023-04-30T10:25:06.994Z,453.00
2023-04-30T10:26:06.970Z,453.00
2023-04-30T10:27:07.713Z,453.00
2023-04-30T10:28:07.213Z,454.00
2023-04-30T10:29:06.889Z,457.00
2023-04-30T10:30:06.898Z,458.00
2023-04-30T10:31:06.900Z,457.00
2023-04-30T10:32:06.941Z,458.00
2023-04-30T10:33:06.942Z,459.00
2023-04-30T10:34:06.936Z,459.00
2023-04-30T10:35:06.971Z,461.00
2023-04-30T10:36:06.944Z,460.00
2023-04-30T10:37:06.945Z,460.00
2023-04-30T10:38:06.975Z,460.00
2023-04-30T10:39:06.978Z,455.00
2023-04-30T10:40:06.983Z,453.00
2023-04-30T10:41:07.071Z,454.00
2023-04-30T10:42:07.014Z,453.00
2023-04-30T10:43:07.020Z,456.00
2023-04-30T10:44:07.052Z,458.00
2023-04-30T10:45:07.057Z,458.00
2023-04-30T10:46:07.086Z,457.00
2023-04-30T10:47:07.107Z,456.00
2023-04-30T10:48:07.360Z,457.00
2023-04-30T10:49:07.101Z,456.00
2023-04-30T10:50:07.136Z,454.00
2023-04-30T10:51:07.139Z,452.00
2023-04-30T10:52:07.172Z,453.00
2023-04-30T10:53:07.180Z,453.00
2023-04-30T10:54:07.210Z,453.00
2023-04-30T10:55:07.272Z,454.00
2023-04-30T10:56:07.254Z,452.00
2023-04-30T10:57:07.249Z,450.00
2023-04-30T10:58:07.276Z,450.00
2023-04-30T10:59:07.287Z,450.00
2023-04-30T11:00:07.289Z,452.00
2023-04-30T11:01:07.331Z,456.00
2023-04-30T11:02:07.324Z,456.00
2023-04-30T11:03:07.465Z,455.00
2023-04-30T11:04:07.366Z,453.00
2023-04-30T11:05:07.522Z,454.00
2023-04-30T11:06:07.436Z,456.00
2023-04-30T11:07:07.409Z,456.00
2023-04-30T11:08:07.433Z,456.00
2023-04-30T11:09:07.490Z,456.00
2023-04-30T11:10:07.468Z,456.00
2023-04-30T11:11:07.472Z,456.00
2023-04-30T11:12:07.510Z,459.00
2023-04-30T11:13:07.528Z,457.00
2023-04-30T11:14:07.523Z,458.00
2023-04-30T11:15:07.551Z,458.00
2023-04-30T11:16:07.566Z,457.00
2023-04-30T11:17:07.589Z,454.00
2023-04-30T11:18:07.738Z,453.00
2023-04-30T11:19:08.580Z,451.00
2023-04-30T11:20:07.657Z,449.00
2023-04-30T11:21:07.665Z,450.00
2023-04-30T11:22:07.706Z,450.00
2023-04-30T11:23:07.713Z,447.00
2023-04-30T11:24:07.746Z,449.00
2023-04-30T11:25:07.739Z,449.00
2023-04-30T11:26:07.775Z,447.00
2023-04-30T11:27:07.813Z,448.00
2023-04-30T11:28:07.784Z,451.00
2023-04-30T11:29:07.829Z,453.00
2023-04-30T11:30:07.782Z,455.00
2023-04-30T11:31:07.930Z,457.00
2023-04-30T11:32:07.810Z,457.00
2023-04-30T11:33:07.858Z,457.00
2023-04-30T11:34:07.902Z,458.00
2023-04-30T11:35:07.927Z,456.00
2023-04-30T11:36:07.930Z,458.00
2023-04-30T11:37:07.900Z,459.00
2023-04-30T11:38:08.009Z,460.00
2023-04-30T11:39:08.061Z,457.00
2023-04-30T11:40:07.948Z,457.00
2023-04-30T11:41:07.966Z,455.00
2023-04-30T11:42:07.971Z,455.00
2023-04-30T11:43:08.009Z,456.00
2023-04-30T11:44:07.936Z,454.00
2023-04-30T11:45:07.939Z,451.00
2023-04-30T11:46:07.963Z,450.00
2023-04-30T11:47:08.112Z,449.00
2023-04-30T11:48:07.929Z,448.00
2023-04-30T11:49:07.941Z,449.00
2023-04-30T11:50:07.873Z,451.00
2023-04-30T11:51:07.852Z,454.00
2023-04-30T11:52:07.858Z,455.00
2023-04-30T11:53:07.856Z,455.00
2023-04-30T11:54:07.808Z,455.00
2023-04-30T11:55:07.773Z,455.00
2023-04-30T11:56:07.776Z,455.00
2023-04-30T11:57:07.762Z,456.00
2023-04-30T11:58:07.749Z,458.00
2023-04-30T11:59:07.723Z,458.00
2023-04-30T12:00:07.702Z,459.00
2023-04-30T12:01:07.814Z,458.00
2023-04-30T12:02:07.756Z,459.00
2023-04-30T12:03:07.783Z,458.00
2023-04-30T12:04:07.738Z,456.00
2023-04-30T12:05:07.637Z,452.00
2023-04-30T12:06:07.689Z,450.00
2023-04-30T12:07:07.578Z,453.00
2023-04-30T12:08:07.581Z,455.00
2023-04-30T12:09:07.540Z,456.00
2023-04-30T12:10:07.545Z,458.00
2023-04-30T12:11:07.481Z,459.00
2023-04-30T12:12:07.475Z,460.00
2023-04-30T12:13:07.462Z,460.00
2023-04-30T12:14:07.535Z,459.00
2023-04-30T12:15:07.410Z,459.00
2023-04-30T12:16:07.425Z,458.00
2023-04-30T12:17:07.366Z,457.00
2023-04-30T12:18:07.386Z,455.00
2023-04-30T12:19:07.359Z,457.00
2023-04-30T12:20:07.290Z,457.00
2023-04-30T12:21:07.296Z,456.00
2023-04-30T12:22:07.243Z,455.00
2023-04-30T12:23:07.264Z,457.00
2023-04-30T12:24:07.236Z,457.00
2023-04-30T12:25:07.210Z,460.00
2023-04-30T12:26:07.221Z,458.00
2023-04-30T12:27:07.233Z,458.00
2023-04-30T12:28:07.265Z,459.00
2023-04-30T12:29:07.257Z,458.00